createdAt,value
2023-04-15T00:00:26.209Z,100.00
2023-04-15T00:03:31.086Z,100.00
2023-04-15T00:06:35.801Z,100.00
2023-04-15T00:09:39.690Z,100.00
2023-04-15T00:12:43.790Z,100.00
2023-04-15T00:15:47.545Z,100.00
2023-04-15T00:18:50.964Z,100.00
2023-04-15T00:21:54.600Z,100.00
2023-04-15T00:24:57.720Z,100.00
2023-04-15T00:28:01.159Z,100.00
2023-04-15T00:31:04.542Z,100.00
2023-04-15T00:34:08.555Z,100.00
2023-04-15T00:37:11.865Z,100.00
2023-04-15T00:40:18.981Z,100.00
2023-04-15T00:43:22.763Z,100.00
2023-04-15T00:46:29.757Z,100.00
2023-04-15T00:49:33.278Z,100.00
2023-04-15T00:52:38.012Z,100.00
2023-04-15T00:55:41.229Z,100.00
2023-04-15T00:58:44.651Z,100.00
2023-04-15T01:01:48.957Z,100.00
2023-04-15T01:04:52.668Z,100.00
2023-04-15T01:07:57.411Z,100.00
2023-04-15T01:11:03.817Z,100.00
2023-04-15T01:14:09.109Z,100.00
2023-04-15T01:17:14.305Z,100.00
2023-04-15T01:20:17.712Z,100.00
2023-04-15T01:23:23.332Z,100.00
2023-04-15T01:26:27.688Z,100.00
2023-04-15T01:29:33.346Z,100.00
2023-04-15T01:32:37.095Z,100.00
2023-04-15T01:35:40.463Z,100.00
2023-04-15T01:38:43.952Z,100.00
2023-04-15T01:41:47.658Z,100.00
2023-04-15T01:44:52.397Z,100.00
2023-04-15T01:47:55.942Z,100.00
2023-04-15T01:50:59.715Z,100.00
2023-04-15T01:54:03.676Z,100.00
2023-04-15T01:57:07.080Z,100.00
2023-04-15T02:00:11.769Z,100.00
2023-04-15T02:03:16.106Z,100.00
2023-04-15T02:06:19.588Z,100.00
2023-04-15T02:09:24.017Z,100.00
2023-04-15T02:12:27.854Z,100.00
2023-04-15T02:15:31.120Z,100.00
2023-04-15T02:18:36.560Z,100.00
2023-04-15T02:21:41.768Z,100.00
2023-04-15T02:24:47.208Z,100.00
2023-04-15T02:27:50.198Z,100.00
2023-04-15T02:30:58.542Z,100.00
2023-04-15T02:34:04.426Z,100.00
2023-04-15T02:37:09.974Z,100.00
2023-04-15T02:40:13.650Z,100.00
2023-04-15T02:43:17.850Z,100.00
2023-04-15T02:46:23.049Z,100.00
2023-04-15T02:49:30.020Z,100.00
2023-04-15T02:52:35.071Z,100.00
2023-04-15T02:55:39.505Z,100.00
2023-04-15T02:58:45.799Z,100.00
2023-04-15T03:01:49.738Z,100.00
2023-04-15T03:04:53.139Z,100.00
2023-04-15T03:07:56.772Z,100.00
2023-04-15T03:11:01.035Z,100.00
2023-04-15T03:14:04.855Z,100.00
2023-04-15T03:17:08.228Z,100.00
2023-04-15T03:20:11.863Z,100.00
2023-04-15T03:23:15.059Z,100.00
2023-04-15T03:26:31.912Z,100.00
2023-04-15T03:29:36.877Z,100.00
2023-04-15T03:32:40.884Z,100.00
2023-04-15T03:35:44.788Z,100.00
2023-04-15T03:38:49.472Z,100.00
2023-04-15T03:41:52.773Z,100.00
2023-04-15T03:44:56.401Z,100.00
2023-04-15T03:48:11.560Z,100.00
2023-04-15T03:51:20.863Z,100.00
2023-04-15T03:54:24.786Z,100.00
2023-04-15T03:57:28.357Z,100.00
2023-04-15T04:00:35.579Z,100.00
2023-04-15T04:03:39.287Z,100.00
2023-04-15T04:06:42.394Z,100.00
2023-04-15T04:09:48.405Z,100.00
2023-04-15T04:12:53.868Z,100.00
2023-04-15T04:15:57.338Z,100.00
2023-04-15T04:19:00.875Z,100.00
2023-04-15T04:22:04.656Z,100.00
2023-04-15T04:25:10.254Z,100.00
2023-04-15T04:28:13.792Z,100.00
2023-04-15T04:31:17.222Z,100.00
2023-04-15T04:34:21.261Z,100.00
2023-04-15T04:37:24.991Z,100.00
2023-04-15T04:40:28.305Z,100.00
2023-04-15T04:43:31.487Z,100.00
2023-04-15T04:46:35.906Z,100.00
2023-04-15T04:49:39.594Z,100.00
2023-04-15T04:52:42.953Z,100.00
2023-04-15T04:55:46.045Z,100.00
2023-04-15T04:58:49.499Z,100.00
2023-04-15T05:01:53.260Z,100.00
2023-04-15T05:04:56.901Z,100.00
2023-04-15T05:07:59.958Z,100.00
2023-04-15T05:11:03.831Z,100.00
2023-04-15T05:14:07.754Z,100.00
2023-04-15T05:17:11.764Z,100.00
2023-04-15T05:20:15.812Z,100.00
2023-04-15T05:23:19.620Z,100.00
2023-04-15T05:26:22.879Z,100.00
2023-04-15T05:29:26.386Z,100.00
2023-04-15T05:32:29.593Z,100.00
2023-04-15T05:35:34.541Z,100.00
2023-04-15T05:38:37.841Z,100.00
2023-04-15T05:41:42.178Z,100.00
2023-04-15T05:44:45.309Z,100.00
2023-04-15T05:47:51.043Z,100.00
2023-04-15T05:50:54.794Z,100.00
2023-04-15T05:53:58.395Z,100.00
2023-04-15T05:57:01.901Z,100.00
2023-04-15T06:00:06.449Z,100.00
2023-04-15T06:03:12.748Z,100.00
2023-04-15T06:06:16.638Z,100.00
2023-04-15T06:09:19.724Z,100.00
2023-04-15T06:12:23.028Z,100.00
2023-04-15T06:15:26.220Z,100.00
2023-04-15T06:18:29.867Z,100.00
2023-04-15T06:21:33.605Z,100.00
2023-04-15T06:24:37.256Z,100.00
2023-04-15T06:27:41.545Z,100.00
2023-04-15T06:30:49.120Z,100.00
2023-04-15T06:33:52.483Z,100.00
2023-04-15T06:36:57.198Z,100.00
2023-04-15T06:40:00.291Z,100.00
2023-04-15T06:43:05.008Z,100.00
2023-04-15T06:46:09.010Z,100.00
2023-04-15T06:49:12.472Z,100.00
2023-04-15T06:52:16.817Z,100.00
2023-04-15T06:55:20.382Z,100.00
2023-04-15T06:58:23.475Z,100.00
2023-04-15T07:01:26.884Z,100.00
2023-04-15T07:04:30.690Z,100.00
2023-04-15T07:07:34.280Z,100.00
2023-04-15T07:10:38.243Z,100.00
2023-04-15T07:13:41.611Z,100.00
2023-04-15T07:16:44.914Z,100.00
2023-04-15T07:19:48.340Z,100.00
2023-04-15T07:22:51.433Z,100.00
2023-04-15T07:25:55.958Z,100.00
2023-04-15T07:28:59.082Z,100.00
2023-04-15T07:32:02.828Z,100.00
2023-04-15T07:35:06.290Z,100.00
2023-04-15T07:38:09.719Z,100.00
2023-04-15T07:41:13.154Z,98.87
2023-04-15T07:44:16.749Z,96.54
2023-04-15T07:47:19.925Z,94.29
2023-04-15T07:50:24.302Z,97.15
2023-04-15T07:53:27.607Z,95.48
2023-04-15T07:56:31.234Z,97.11
2023-04-15T07:59:34.495Z,97.08
2023-04-15T08:02:40.214Z,96.76
2023-04-15T08:05:44.837Z,97.87
2023-04-15T08:08:48.366Z,100.00
2023-04-15T08:11:52.059Z,100.00
2023-04-15T08:14:55.717Z,100.00
2023-04-15T08:18:01.402Z,100.00
2023-04-15T08:21:05.902Z,99.51
2023-04-15T08:24:09.356Z,97.14
2023-04-15T08:27:13.789Z,96.85
2023-04-15T08:30:19.675Z,95.68
2023-04-15T08:33:24.027Z,95.17
2023-04-15T08:36:27.642Z,97.94
2023-04-15T08:39:30.918Z,95.56
2023-04-15T08:42:42.974Z,95.14
2023-04-15T08:45:48.761Z,97.91
2023-04-15T08:48:56.722Z,96.89
2023-04-15T08:52:01.837Z,97.98
2023-04-15T08:55:07.621Z,96.11
2023-04-15T08:58:13.020Z,94.02
2023-04-15T09:01:17.171Z,92.54
2023-04-15T09:04:20.789Z,86.94
2023-04-15T09:07:24.188Z,88.53
2023-04-15T09:10:28.267Z,82.40
2023-04-15T09:13:32.199Z,84.50
2023-04-15T09:17:01.479Z,85.97
2023-04-15T09:20:09.960Z,85.89
2023-04-15T09:23:17.671Z,80.43
2023-04-15T09:26:34.863Z,75.87
2023-04-15T09:29:38.251Z,78.94
2023-04-15T09:32:54.137Z,82.59
2023-04-15T09:36:07.017Z,81.22
2023-04-15T09:39:10.467Z,82.37
2023-04-15T09:42:14.609Z,83.37
2023-04-15T09:45:18.177Z,84.11
2023-04-15T09:48:27.400Z,77.92
2023-04-15T09:51:35.936Z,76.67
2023-04-15T09:54:39.303Z,75.18
2023-04-15T09:57:44.463Z,79.58
2023-04-15T10:00:49.331Z,77.41
2023-04-15T10:03:54.610Z,77.94
2023-04-15T10:06:58.536Z,75.08
2023-04-15T10:10:03.826Z,72.55
2023-04-15T10:13:07.567Z,70.62
2023-04-15T10:16:20.017Z,69.87
2023-04-15T10:19:27.806Z,68.33
2023-04-15T10:22:32.818Z,73.35
2023-04-15T10:25:37.541Z,73.97
2023-04-15T10:28:41.789Z,74.80
2023-04-15T10:31:45.608Z,75.19
2023-04-15T10:34:51.882Z,73.74
2023-04-15T10:37:57.007Z,73.52
2023-04-15T10:41:17.678Z,73.60
2023-04-15T10:44:22.720Z,68.75
2023-04-15T10:47:26.256Z,68.86
2023-04-15T10:50:33.769Z,66.65
2023-04-15T10:53:38.078Z,69.03
2023-04-15T10:56:45.864Z,67.28
2023-04-15T10:59:59.210Z,68.49
2023-04-15T11:03:10.041Z,72.56
2023-04-15T11:06:13.699Z,74.40
2023-04-15T11:09:32.676Z,75.47
2023-04-15T11:12:36.591Z,77.42
2023-04-15T11:15:48.065Z,74.57
2023-04-15T11:18:56.149Z,70.57
2023-04-15T11:22:07.611Z,72.05
2023-04-15T11:25:10.935Z,72.10
2023-04-15T11:28:14.376Z,68.69
2023-04-15T11:31:20.115Z,67.19
2023-04-15T11:34:24.117Z,67.50
2023-04-15T11:37:30.480Z,68.20
2023-04-15T11:40:35.585Z,69.16
2023-04-15T11:43:40.423Z,71.52
2023-04-15T11:46:45.470Z,72.63
2023-04-15T11:49:48.979Z,73.14
2023-04-15T11:53:01.098Z,75.39
2023-04-15T11:56:05.077Z,76.35
2023-04-15T11:59:08.434Z,76.94
2023-04-15T12:02:13.645Z,75.92
2023-04-15T12:05:17.456Z,74.48
2023-04-15T12:08:21.376Z,71.73
2023-04-15T12:11:31.041Z,70.35
2023-04-15T12:14:34.460Z,69.37
2023-04-15T12:17:50.976Z,70.20
2023-04-15T12:20:56.154Z,71.65
2023-04-15T12:24:03.051Z,66.33
2023-04-15T12:27:08.051Z,69.88
2023-04-15T12:30:11.849Z,68.68
2023-04-15T12:33:15.451Z,69.70
2023-04-15T12:36:20.086Z,67.85
2023-04-15T12:39:25.680Z,67.37
2023-04-15T12:42:29.389Z,68.02
2023-04-15T12:45:33.052Z,67.63
2023-04-15T12:48:37.009Z,68.52
2023-04-15T12:51:40.017Z,66.40
2023-04-15T12:54:43.591Z,68.21
2023-04-15T12:57:46.724Z,66.81
2023-04-15T13:00:50.492Z,67.90
2023-04-15T13:03:54.089Z,68.30
2023-04-15T13:06:57.705Z,68.57
2023-04-15T13:10:01.198Z,67.08
2023-04-15T13:13:05.603Z,69.33
2023-04-15T13:16:08.811Z,70.86
2023-04-15T13:19:12.228Z,70.45
2023-04-15T13:22:15.640Z,71.44
2023-04-15T13:25:20.150Z,71.01
2023-04-15T13:28:23.229Z,71.07
2023-04-15T13:31:27.350Z,72.88
2023-04-15T13:34:32.107Z,72.89
2023-04-15T13:37:35.684Z,70.89
2023-04-15T13:40:38.906Z,70.96
2023-04-15T13:43:42.417Z,71.60
2023-04-15T13:46:45.605Z,70.20
2023-04-15T13:49:48.957Z,70.76
2023-04-15T13:52:52.956Z,73.88
2023-04-15T13:55:56.502Z,72.67
2023-04-15T13:59:02.299Z,71.56
2023-04-15T14:02:05.904Z,73.03
2023-04-15T14:05:10.794Z,73.56
2023-04-15T14:08:14.253Z,71.26
2023-04-15T14:11:18.119Z,71.55
2023-04-15T14:14:21.325Z,72.26
2023-04-15T14:17:25.288Z,70.28
2023-04-15T14:20:29.615Z,73.10
2023-04-15T14:23:33.396Z,71.08
2023-04-15T14:26:37.165Z,72.43
2023-04-15T14:29:41.292Z,73.23
2023-04-15T14:32:44.814Z,74.86
2023-04-15T14:35:50.068Z,74.58
2023-04-15T14:38:53.400Z,74.84
2023-04-15T14:41:56.879Z,76.94
2023-04-15T14:45:00.795Z,77.80
2023-04-15T14:48:09.938Z,78.18
2023-04-15T14:51:14.153Z,77.42
2023-04-15T14:54:21.210Z,78.50
2023-04-15T14:57:25.418Z,78.04
2023-04-15T15:00:28.834Z,78.94
2023-04-15T15:03:32.474Z,78.88
2023-04-15T15:06:36.227Z,78.55
2023-04-15T15:09:39.449Z,77.20
2023-04-15T15:12:45.823Z,77.83
2023-04-15T15:15:51.951Z,77.12
2023-04-15T15:18:55.625Z,77.01
2023-04-15T15:21:59.009Z,77.43
2023-04-15T15:25:02.646Z,76.77
2023-04-15T15:28:06.416Z,78.19
2023-04-15T15:31:09.962Z,78.14
2023-04-15T15:34:14.071Z,79.69
2023-04-15T15:37:19.323Z,81.68
2023-04-15T15:40:22.753Z,82.47
2023-04-15T15:43:26.822Z,80.41
2023-04-15T15:46:31.585Z,80.72
2023-04-15T15:49:35.795Z,81.43
2023-04-15T15:52:38.809Z,80.77
2023-04-15T15:55:42.390Z,81.69
2023-04-15T15:58:50.252Z,82.05
2023-04-15T16:01:53.902Z,82.40
2023-04-15T16:04:57.340Z,82.85
2023-04-15T16:08:00.837Z,82.99
2023-04-15T16:11:04.808Z,83.62
2023-04-15T16:14:08.367Z,83.62
2023-04-15T16:17:12.203Z,84.71
2023-04-15T16:20:15.777Z,87.50
2023-04-15T16:23:20.735Z,96.32
2023-04-15T16:26:24.353Z,100.00
2023-04-15T16:29:29.069Z,100.00
2023-04-15T16:32:32.385Z,100.00
2023-04-15T16:35:36.107Z,100.00
2023-04-15T16:38:39.725Z,100.00
2023-04-15T16:41:43.399Z,100.00
2023-04-15T16:44:46.651Z,100.00
2023-04-15T16:47:50.411Z,100.00
2023-04-15T16:50:54.984Z,100.00
2023-04-15T16:53:58.781Z,100.00
2023-04-15T16:57:02.943Z,100.00
2023-04-15T17:00:07.430Z,100.00
2023-04-15T17:03:11.160Z,100.00
2023-04-15T17:06:17.792Z,100.00
2023-04-15T17:09:21.106Z,100.00
2023-04-15T17:12:24.792Z,100.00
2023-04-15T17:15:28.477Z,100.00
2023-04-15T17:18:32.731Z,100.00
2023-04-15T17:21:36.355Z,100.00
2023-04-15T17:24:39.892Z,100.00
2023-04-15T17:27:43.229Z,100.00
2023-04-15T17:30:48.289Z,100.00
2023-04-15T17:34:03.984Z,100.00
2023-04-15T17:37:13.779Z,100.00
2023-04-15T17:40:17.341Z,100.00
2023-04-15T17:43:21.410Z,100.00
2023-04-15T17:46:25.469Z,100.00
2023-04-15T17:49:31.403Z,100.00
2023-04-15T17:52:36.454Z,100.00
2023-04-15T17:55:40.264Z,100.00
2023-04-15T17:58:44.057Z,100.00
2023-04-15T18:01:48.451Z,100.00
2023-04-15T18:05:02.065Z,100.00
2023-04-15T18:08:07.396Z,100.00
2023-04-15T18:11:12.518Z,100.00
2023-04-15T18:14:26.963Z,100.00
2023-04-15T18:17:37.542Z,100.00
2023-04-15T18:20:43.275Z,100.00
2023-04-15T18:23:46.838Z,100.00
2023-04-15T18:26:51.021Z,100.00
2023-04-15T18:29:54.891Z,100.00
2023-04-15T18:33:01.825Z,100.00
2023-04-15T18:36:05.435Z,100.00
2023-04-15T18:39:09.130Z,100.00
2023-04-15T18:42:13.686Z,100.00
2023-04-15T18:45:17.442Z,100.00
2023-04-15T18:48:22.958Z,100.00
2023-04-15T18:51:27.195Z,100.00
2023-04-15T18:54:32.605Z,100.00
2023-04-15T18:57:37.040Z,100.00
2023-04-15T19:00:44.169Z,100.00
2023-04-15T19:03:48.663Z,100.00
2023-04-15T19:06:52.967Z,100.00
2023-04-15T19:09:57.861Z,100.00
2023-04-15T19:13:04.451Z,100.00
2023-04-15T19:16:09.750Z,100.00
2023-04-15T19:19:16.100Z,100.00
2023-04-15T19:22:20.411Z,100.00
2023-04-15T19:25:25.354Z,100.00
2023-04-15T19:28:31.183Z,100.00
2023-04-15T19:31:35.707Z,100.00
2023-04-15T19:34:42.621Z,100.00
2023-04-15T19:37:48.350Z,100.00
2023-04-15T19:40:52.324Z,100.00
2023-04-15T19:43:57.019Z,100.00
2023-04-15T19:47:00.631Z,100.00
2023-04-15T19:50:08.082Z,100.00
2023-04-15T19:53:12.218Z,100.00
2023-04-15T19:56:21.957Z,100.00
2023-04-15T19:59:26.507Z,100.00
2023-04-15T20:02:31.684Z,100.00
2023-04-15T20:05:36.866Z,100.00
2023-04-15T20:08:43.236Z,100.00
2023-04-15T20:12:48.352Z,100.00
2023-04-15T20:15:12.233Z,100.00
2023-04-15T20:18:17.768Z,100.00
2023-04-15T20:21:22.815Z,100.00
2023-04-15T20:24:26.600Z,100.00
2023-04-15T20:27:30.506Z,100.00
2023-04-15T20:30:35.600Z,100.00
2023-04-15T20:33:39.129Z,100.00
2023-04-15T20:36:42.743Z,100.00
2023-04-15T20:39:46.229Z,100.00
2023-04-15T20:42:51.611Z,100.00
2023-04-15T20:45:57.555Z,100.00
2023-04-15T20:49:03.533Z,100.00
2023-04-15T20:52:08.588Z,100.00
2023-04-15T20:55:12.881Z,100.00
2023-04-15T20:58:16.598Z,100.00
2023-04-15T21:01:21.055Z,100.00
2023-04-15T21:04:25.071Z,100.00
2023-04-15T21:07:28.873Z,100.00
2023-04-15T21:10:35.363Z,100.00
2023-04-15T21:13:38.992Z,100.00
2023-04-15T21:16:51.100Z,100.00
2023-04-15T21:19:54.769Z,100.00
2023-04-15T21:22:58.144Z,100.00
2023-04-15T21:26:02.041Z,100.00
2023-04-15T21:29:07.909Z,100.00
2023-04-15T21:32:13.076Z,100.00
2023-04-15T21:35:16.255Z,100.00
2023-04-15T21:38:21.330Z,100.00
2023-04-15T21:41:27.330Z,100.00
2023-04-15T21:44:31.311Z,100.00
2023-04-15T21:47:57.150Z,100.00
2023-04-15T21:51:01.029Z,100.00
2023-04-15T21:54:04.363Z,100.00
2023-04-15T21:57:07.853Z,100.00
2023-04-15T22:00:11.979Z,100.00
2023-04-15T22:03:16.185Z,100.00
2023-04-15T22:06:19.820Z,100.00
2023-04-15T22:09:23.018Z,100.00
2023-04-15T22:12:26.781Z,100.00
2023-04-15T22:15:32.768Z,100.00
2023-04-15T22:18:41.117Z,100.00
2023-04-15T22:21:44.944Z,100.00
2023-04-15T22:24:48.340Z,100.00
2023-04-15T22:27:51.467Z,100.00
2023-04-15T22:30:55.128Z,100.00
2023-04-15T22:33:58.559Z,100.00
2023-04-15T22:37:03.026Z,100.00
2023-04-15T22:40:06.782Z,100.00
2023-04-15T22:43:10.965Z,100.00
2023-04-15T22:46:14.745Z,100.00
2023-04-15T22:49:18.401Z,100.00
2023-04-15T22:52:30.003Z,100.00
2023-04-15T22:55:34.173Z,100.00
2023-04-15T22:58:38.581Z,100.00
2023-04-15T23:01:42.508Z,100.00
2023-04-15T23:04:46.204Z,100.00
2023-04-15T23:07:49.657Z,100.00
2023-04-15T23:10:52.774Z,100.00
2023-04-15T23:13:56.770Z,100.00
2023-04-15T23:17:00.066Z,100.00
2023-04-15T23:20:03.639Z,100.00
2023-04-15T23:23:07.302Z,100.00
2023-04-15T23:26:13.068Z,100.00
2023-04-15T23:29:16.465Z,100.00
2023-04-15T23:32:20.912Z,100.00
2023-04-15T23:35:25.563Z,100.00
2023-04-15T23:38:29.146Z,100.00
2023-04-15T23:41:32.370Z,100.00
2023-04-15T23:44:38.410Z,100.00
2023-04-15T23:47:42.090Z,100.00
2023-04-15T23:50:45.525Z,100.00
2023-04-15T23:53:49.463Z,100.00
2023-04-15T23:56:54.164Z,100.00
2023-04-15T23:59:57.302Z,100.00
